createdAt,value
2022-08-30T00:00:17.364Z,17.11
2022-08-30T00:04:55.898Z,16.95
2022-08-30T00:09:56.172Z,16.79
2022-08-30T00:14:53.869Z,16.77
2022-08-30T00:19:53.034Z,16.7
2022-08-30T00:24:52.635Z,16.62
2022-08-30T00:29:52.024Z,16.59
2022-08-30T00:34:51.595Z,16.57
2022-08-30T00:39:51.540Z,16.54
2022-08-30T00:44:51.063Z,16.64
2022-08-30T00:49:48.493Z,16.7
2022-08-30T00:54:47.923Z,16.74
2022-08-30T00:59:18.345Z,16.82
2022-08-30T01:04:18.404Z,16.94
2022-08-30T01:09:17.714Z,17.07
2022-08-30T01:14:17.080Z,17.27
2022-08-30T01:19:16.556Z,17.41
2022-08-30T01:24:15.997Z,17.51
2022-08-30T01:29:15.281Z,17.54
2022-08-30T01:34:15.204Z,17.68
2022-08-30T01:39:14.684Z,17.7
2022-08-30T01:44:14.095Z,17.6
2022-08-30T01:49:05.658Z,17.45
2022-08-30T01:54:04.993Z,17.35
2022-08-30T01:58:52.907Z,17.27
2022-08-30T02:03:49.899Z,17.16
2022-08-30T02:08:48.999Z,17.04
2022-08-30T02:13:48.583Z,16.94
2022-08-30T02:18:47.729Z,16.84
2022-08-30T02:23:46.816Z,16.75
2022-08-30T02:28:49.796Z,16.68
2022-08-30T02:33:45.839Z,16.6
2022-08-30T02:38:45.295Z,16.54
2022-08-30T02:43:42.917Z,16.54
2022-08-30T02:48:41.759Z,16.62
2022-08-30T02:53:41.065Z,16.53
2022-08-30T02:58:40.275Z,16.37
2022-08-30T03:00:02.598Z,16.33
2022-08-30T03:05:02.092Z,16.2
2022-08-30T03:10:31.487Z,16.04
2022-08-30T03:15:00.912Z,15.98
2022-08-30T03:19:59.832Z,15.94
2022-08-30T03:24:57.583Z,15.98
2022-08-30T03:29:56.725Z,16.07
2022-08-30T03:34:55.852Z,16.17
2022-08-30T03:39:55.179Z,16.17
2022-08-30T03:44:55.057Z,16.21
2022-08-30T03:49:54.691Z,16.21
2022-08-30T03:54:54.346Z,16.25
2022-08-30T03:59:17.036Z,16.28
2022-08-30T04:04:20.155Z,16.29
2022-08-30T04:09:14.872Z,16.27
2022-08-30T04:14:14.332Z,16.25
2022-08-30T04:19:13.443Z,16.23
2022-08-30T04:24:13.278Z,16.2
2022-08-30T04:29:12.668Z,16.15
2022-08-30T04:34:19.968Z,16.18
2022-08-30T04:39:19.059Z,16.16
2022-08-30T04:44:19.841Z,16.12
2022-08-30T04:49:16.846Z,16.12
2022-08-30T04:54:16.431Z,16.1
2022-08-30T04:58:56.076Z,16.08
2022-08-30T05:03:55.813Z,16.07
2022-08-30T05:08:55.630Z,16.09
2022-08-30T05:13:54.763Z,16.12
2022-08-30T05:18:53.582Z,16.18
2022-08-30T05:23:53.668Z,16.24
2022-08-30T05:28:50.320Z,16.31
2022-08-30T05:33:49.382Z,16.4
2022-08-30T05:38:49.114Z,16.54
2022-08-30T05:43:48.723Z,16.64
2022-08-30T05:48:48.572Z,16.68
2022-08-30T05:53:47.768Z,16.74
2022-08-30T05:58:46.465Z,16.84
2022-08-30T06:03:45.150Z,16.96
2022-08-30T06:08:44.407Z,17.08
2022-08-30T06:13:43.703Z,17.27
2022-08-30T06:18:42.788Z,17.49
2022-08-30T06:23:42.572Z,17.66
2022-08-30T06:28:42.065Z,17.79
2022-08-30T06:33:42.321Z,17.9
2022-08-30T06:38:41.149Z,18.07
2022-08-30T06:43:40.499Z,18.32
2022-08-30T06:48:39.155Z,18.56
2022-08-30T06:53:38.507Z,18.78
2022-08-30T06:58:37.499Z,18.87
2022-08-30T07:03:37.105Z,18.99
2022-08-30T07:08:36.552Z,19.12
2022-08-30T07:13:36.018Z,19.37
2022-08-30T07:18:35.066Z,19.7
2022-08-30T07:23:34.546Z,19.95
2022-08-30T07:28:34.476Z,20.1
2022-08-30T07:33:31.460Z,20.25
2022-08-30T07:38:30.954Z,20.42
2022-08-30T07:43:30.180Z,20.62
2022-08-30T07:48:29.752Z,20.95
2022-08-30T07:53:29.572Z,21.37
2022-08-30T07:58:29.459Z,21.75
2022-08-30T07:59:51.877Z,21.85
2022-08-30T08:04:51.694Z,22.08
2022-08-30T08:09:51.984Z,22.21
2022-08-30T08:14:48.698Z,22.55
2022-08-30T08:19:47.700Z,23.06
2022-08-30T08:24:47.177Z,23.6
2022-08-30T08:29:47.309Z,23.93
2022-08-30T08:34:46.629Z,24.07
2022-08-30T08:39:46.737Z,24.05
2022-08-30T08:44:45.724Z,24.46
2022-08-30T08:49:45.728Z,24.84
2022-08-30T08:54:43.474Z,25.11
2022-08-30T08:59:12.592Z,25.14
2022-08-30T09:04:20.318Z,25.58
2022-08-30T09:09:18.970Z,26
2022-08-30T09:14:18.394Z,26.34
2022-08-30T09:19:17.632Z,26.54
2022-08-30T09:24:17.477Z,26.68
2022-08-30T09:29:16.513Z,26.88
2022-08-30T09:34:16.389Z,27.14
2022-08-30T09:39:16.127Z,27.44
2022-08-30T09:44:16.414Z,27.87
2022-08-30T09:49:15.558Z,27.94
2022-08-30T09:54:17.589Z,28.15
2022-08-30T09:58:55.119Z,28.4
2022-08-30T10:03:54.140Z,28.45
2022-08-30T10:08:53.222Z,28.51
2022-08-30T10:13:52.582Z,28.44
2022-08-30T10:18:51.853Z,28.59
2022-08-30T10:23:51.531Z,28.8
2022-08-30T10:28:50.492Z,28.88
2022-08-30T10:33:50.614Z,29.1
2022-08-30T10:38:49.536Z,29.32
2022-08-30T10:43:50.886Z,29.47
2022-08-30T10:48:47.410Z,29.63
2022-08-30T10:53:45.996Z,29.57
2022-08-30T10:58:44.940Z,29.46
2022-08-30T11:03:44.430Z,29.76
2022-08-30T11:08:43.984Z,29.9
2022-08-30T11:13:43.878Z,30.17
2022-08-30T11:18:43.295Z,29.98
2022-08-30T11:23:42.483Z,30.05
2022-08-30T11:28:42.461Z,29.84
2022-08-30T11:33:39.403Z,29.64
2022-08-30T11:38:38.529Z,29.32
2022-08-30T11:43:37.657Z,29.01
2022-08-30T11:48:36.950Z,28.99
2022-08-30T11:53:36.776Z,29.22
2022-08-30T11:58:36.002Z,29.27
2022-08-30T12:03:36.030Z,29.46
2022-08-30T12:08:35.196Z,29.34
2022-08-30T12:13:32.952Z,29.63
2022-08-30T12:18:32.137Z,30.14
2022-08-30T12:23:31.614Z,30.52
2022-08-30T12:28:31.214Z,30.67
2022-08-30T12:33:34.910Z,30.68
2022-08-30T12:38:32.852Z,30.92
2022-08-30T12:43:33.179Z,31.06
2022-08-30T12:48:28.998Z,31.11
2022-08-30T12:53:28.675Z,31.04
2022-08-30T12:58:26.388Z,31.21
2022-08-30T12:59:53.151Z,31.22
2022-08-30T13:04:47.518Z,31.28
2022-08-30T13:09:46.803Z,31.37
2022-08-30T13:14:46.335Z,31.06
2022-08-30T13:19:45.819Z,31.22
2022-08-30T13:24:45.850Z,31.5
2022-08-30T13:29:45.152Z,31.43
2022-08-30T13:34:44.614Z,31.09
2022-08-30T13:39:42.488Z,30.93
2022-08-30T13:44:41.660Z,31.17
2022-08-30T13:49:44.757Z,31.17
2022-08-30T13:54:40.876Z,31.16
2022-08-30T13:59:19.179Z,31.24
2022-08-30T14:04:18.510Z,31.41
2022-08-30T14:09:17.921Z,31.44
2022-08-30T14:14:23.570Z,31.66
2022-08-30T14:19:16.431Z,31.69
2022-08-30T14:24:16.505Z,31.78
2022-08-30T14:29:16.223Z,31.8
2022-08-30T14:34:15.536Z,31.66
2022-08-30T14:39:14.485Z,31.34
2022-08-30T14:44:14.175Z,31.74
2022-08-30T14:49:04.990Z,31.83
2022-08-30T14:54:04.113Z,31.76
2022-08-30T14:58:50.114Z,31.62
2022-08-30T15:03:49.722Z,31.19
2022-08-30T15:08:48.906Z,31.18
2022-08-30T15:13:48.859Z,30.95
2022-08-30T15:18:48.410Z,30.88
2022-08-30T15:23:48.415Z,30.49
2022-08-30T15:28:46.837Z,30.36
2022-08-30T15:33:45.868Z,30.2
2022-08-30T15:38:45.132Z,30.42
2022-08-30T15:43:44.796Z,30.62
2022-08-30T15:48:45.569Z,30.79
2022-08-30T15:53:44.045Z,30.57
2022-08-30T15:58:43.588Z,30.03
2022-08-30T16:03:42.771Z,29.53
2022-08-30T16:08:41.473Z,29.53
2022-08-30T16:13:42.087Z,29.31
2022-08-30T16:18:38.638Z,28.94
2022-08-30T16:23:37.635Z,28.58
2022-08-30T16:28:36.779Z,28.34
2022-08-30T16:33:37.971Z,28.18
2022-08-30T16:38:35.542Z,28.03
2022-08-30T16:43:35.216Z,27.87
2022-08-30T16:48:34.156Z,27.76
2022-08-30T16:53:33.299Z,27.61
2022-08-30T16:58:32.215Z,27.4
2022-08-30T16:59:53.291Z,27.35
2022-08-30T17:04:53.148Z,27.21
2022-08-30T17:09:51.864Z,27.07
2022-08-30T17:14:51.198Z,26.98
2022-08-30T17:19:51.092Z,26.85
2022-08-30T17:24:49.821Z,26.81
2022-08-30T17:29:48.927Z,26.73
2022-08-30T17:34:48.821Z,26.61
2022-08-30T17:39:45.587Z,26.45
2022-08-30T17:44:44.558Z,26.29
2022-08-30T17:49:43.740Z,26.12
2022-08-30T17:54:43.076Z,25.96
2022-08-30T17:58:55.823Z,25.86
2022-08-30T18:03:57.794Z,25.72
2022-08-30T18:08:55.444Z,25.57
2022-08-30T18:13:54.613Z,25.41
2022-08-30T18:18:57.102Z,25.18
2022-08-30T18:23:54.523Z,24.99
2022-08-30T18:28:50.196Z,24.84
2022-08-30T18:33:49.354Z,24.67
2022-08-30T18:38:48.844Z,24.53
2022-08-30T18:43:47.861Z,24.43
2022-08-30T18:48:46.299Z,24.35
2022-08-30T18:53:45.320Z,24.25
2022-08-30T18:58:44.464Z,24.16
2022-08-30T19:00:13.507Z,24.13
2022-08-30T19:05:06.135Z,24.06
2022-08-30T19:10:05.595Z,23.9
2022-08-30T19:15:10.706Z,23.81
2022-08-30T19:20:03.724Z,23.69
2022-08-30T19:25:03.488Z,23.54
2022-08-30T19:30:00.290Z,23.44
2022-08-30T19:34:59.315Z,23.35
2022-08-30T19:39:59.207Z,23.26
2022-08-30T19:44:58.454Z,23.14
2022-08-30T19:49:57.937Z,22.98
2022-08-30T19:54:57.743Z,22.83
2022-08-30T19:59:18.715Z,22.7
2022-08-30T20:04:17.970Z,22.58
2022-08-30T20:09:17.678Z,22.44
2022-08-30T20:14:15.020Z,22.3
2022-08-30T20:19:14.148Z,22.17
2022-08-30T20:24:13.477Z,22.04
2022-08-30T20:29:12.849Z,21.92
2022-08-30T20:34:20.150Z,22.01
2022-08-30T20:39:19.181Z,22.09
2022-08-30T20:44:18.944Z,22.24
2022-08-30T20:49:16.957Z,22.16
2022-08-30T20:54:16.642Z,22.05
2022-08-30T20:58:59.752Z,21.96
2022-08-30T21:03:59.734Z,21.83
2022-08-30T21:08:59.184Z,21.78
2022-08-30T21:13:59.051Z,21.83
2022-08-30T21:18:57.999Z,21.78
2022-08-30T21:23:57.294Z,21.67
2022-08-30T21:28:55.666Z,21.54
2022-08-30T21:33:54.545Z,21.42
2022-08-30T21:38:53.886Z,21.25
2022-08-30T21:43:53.073Z,21.18
2022-08-30T21:48:52.603Z,21.05
2022-08-30T21:53:51.672Z,20.94
2022-08-30T21:58:50.747Z,20.85
2022-08-30T22:00:13.427Z,20.84
2022-08-30T22:05:21.009Z,20.79
2022-08-30T22:10:18.202Z,20.75
2022-08-30T22:15:17.929Z,20.77
2022-08-30T22:20:18.391Z,20.79
2022-08-30T22:25:17.536Z,21.02
2022-08-30T22:30:16.958Z,21.24
2022-08-30T22:35:17.564Z,21.49
2022-08-30T22:40:14.877Z,21.71
2022-08-30T22:45:14.266Z,21.87
2022-08-30T22:50:13.893Z,21.94
2022-08-30T22:55:14.117Z,22.07
2022-08-30T22:59:35.027Z,22.11
2022-08-30T23:04:34.123Z,22.23
2022-08-30T23:09:33.044Z,22.15
2022-08-30T23:14:32.170Z,21.42
2022-08-30T23:19:30.898Z,20.71
2022-08-30T23:24:30.673Z,20.08
2022-08-30T23:29:29.775Z,19.62
2022-08-30T23:34:29.383Z,19.36
2022-08-30T23:39:28.860Z,19.08
2022-08-30T23:44:27.926Z,18.79
2022-08-30T23:49:26.849Z,18.62
2022-08-30T23:54:26.939Z,18.51
2022-08-30T23:59:01.869Z,18.42
